createdAt,value
2022-08-18T00:00:03.359Z,1000.34
2022-08-18T00:00:33.370Z,1000.44
2022-08-18T00:01:05.490Z,1000.44
2022-08-18T00:01:22.728Z,1000.44
2022-08-18T00:01:40.343Z,1000.24
2022-08-18T00:02:11.120Z,1000.24
2022-08-18T00:02:33.354Z,1000.24
2022-08-18T00:03:00.915Z,1000.24
2022-08-18T00:03:57.200Z,1000.24
2022-08-18T00:04:03.238Z,1000.24
2022-08-18T00:04:35.999Z,1000.24
2022-08-18T00:05:07.057Z,1000.24
2022-08-18T00:05:33.488Z,1000.13
2022-08-18T00:05:54.079Z,1000.13
2022-08-18T00:06:28.517Z,1000.13
2022-08-18T00:06:58.676Z,1000.34
2022-08-18T00:07:30.030Z,1000.34
2022-08-18T00:08:02.737Z,1000.44
2022-08-18T00:08:38.314Z,1000.24
2022-08-18T00:08:49.837Z,1000.24
2022-08-18T00:09:22.715Z,1000.24
2022-08-18T00:09:39.801Z,1000.44
2022-08-18T00:10:10.127Z,1000.44
2022-08-18T00:10:33.282Z,1000.34
2022-08-18T00:10:58.114Z,1000.34
2022-08-18T00:11:41.234Z,1000.34
2022-08-18T00:12:01.968Z,1000.24
2022-08-18T00:12:33.996Z,1000.34
2022-08-18T00:13:05.933Z,1000.34
2022-08-18T00:13:33.485Z,1000.13
2022-08-18T00:13:56.276Z,1000.13
2022-08-18T00:14:26.012Z,1000.13
2022-08-18T00:14:59.940Z,1000.34
2022-08-18T00:15:30.130Z,1000.34
2022-08-18T00:16:02.855Z,1000.34
2022-08-18T00:16:35.268Z,1000.34
2022-08-18T00:17:06.676Z,1000.34
2022-08-18T00:17:33.279Z,1000.24
2022-08-18T00:17:53.974Z,1000.24
2022-08-18T00:18:25.960Z,1000.24
2022-08-18T00:18:58.068Z,1000.34
2022-08-18T00:19:46.565Z,1000.34
2022-08-18T00:20:02.097Z,1000.24
2022-08-18T00:20:33.242Z,1000.24
2022-08-18T00:20:49.944Z,1000.24
2022-08-18T00:21:23.557Z,1000.24
2022-08-18T00:21:41.455Z,1000.44
2022-08-18T00:22:12.427Z,1000.44
2022-08-18T00:22:33.221Z,1000.34
2022-08-18T00:22:57.933Z,1000.34
2022-08-18T00:23:30.077Z,1000.34
2022-08-18T00:24:02.734Z,1000.34
2022-08-18T00:24:33.352Z,1000.44
2022-08-18T00:24:49.784Z,1000.44
2022-08-18T00:25:22.984Z,1000.44
2022-08-18T00:25:42.353Z,1000.34
2022-08-18T00:26:10.035Z,1000.34
2022-08-18T00:26:36.831Z,1000.34
2022-08-18T00:26:59.937Z,1000.34
2022-08-18T00:27:29.946Z,1000.34
2022-08-18T00:28:02.643Z,1000.34
2022-08-18T00:28:33.290Z,1000.44
2022-08-18T00:28:49.729Z,1000.44
2022-08-18T00:29:22.759Z,1000.44
2022-08-18T00:29:40.719Z,1000.54
2022-08-18T00:30:10.182Z,1000.54
2022-08-18T00:30:33.339Z,1000.54
2022-08-18T00:30:58.930Z,1000.54
2022-08-18T00:31:30.727Z,1000.54
2022-08-18T00:32:01.932Z,1000.44
2022-08-18T00:32:36.106Z,1000.24
2022-08-18T00:33:06.010Z,1000.24
2022-08-18T00:33:33.255Z,1000.34
2022-08-18T00:33:54.576Z,1000.34
2022-08-18T00:34:25.977Z,1000.34
2022-08-18T00:34:58.677Z,1000.34
2022-08-18T00:35:30.173Z,1000.34
2022-08-18T00:36:02.799Z,1000.34
2022-08-18T00:36:33.311Z,1000.44
2022-08-18T00:36:51.835Z,1000.44
2022-08-18T00:37:21.975Z,1000.44
2022-08-18T00:37:40.171Z,1000.34
2022-08-18T00:38:24.401Z,1000.34
2022-08-18T00:38:33.264Z,1000.44
2022-08-18T00:38:57.918Z,1000.44
2022-08-18T00:39:29.958Z,1000.44
2022-08-18T00:40:02.231Z,1000.34
2022-08-18T00:40:37.662Z,1000.24
2022-08-18T00:40:49.941Z,1000.24
2022-08-18T00:41:23.631Z,1000.24
2022-08-18T00:41:40.773Z,1000.44
2022-08-18T00:42:09.959Z,1000.44
2022-08-18T00:42:35.025Z,1000.44
2022-08-18T00:42:58.814Z,1000.44
2022-08-18T00:43:29.994Z,1000.44
2022-08-18T00:44:06.043Z,1000.34
2022-08-18T00:44:34.864Z,1000.34
2022-08-18T00:45:06.154Z,1000.34
2022-08-18T00:45:33.326Z,1000.44
2022-08-18T00:45:54.088Z,1000.44
2022-08-18T00:46:26.811Z,1000.44
2022-08-18T00:46:58.904Z,1000.13
2022-08-18T00:47:42.621Z,1000.13
2022-08-18T00:48:02.911Z,1000.24
2022-08-18T00:48:35.156Z,1000.13
2022-08-18T00:49:05.981Z,1000.13
2022-08-18T00:49:34.313Z,1000.13
2022-08-18T00:49:54.022Z,1000.13
2022-08-18T00:50:26.064Z,1000.13
2022-08-18T00:50:58.817Z,1000.34
2022-08-18T00:51:30.056Z,1000.34
2022-08-18T00:52:03.072Z,1000.24
2022-08-18T00:52:33.493Z,1000.34
2022-08-18T00:52:49.826Z,1000.34
2022-08-18T00:53:22.811Z,1000.34
2022-08-18T00:53:39.936Z,1000.24
2022-08-18T00:54:10.028Z,1000.24
2022-08-18T00:54:33.224Z,1000.34
2022-08-18T00:54:58.916Z,1000.34
2022-08-18T00:55:30.885Z,1000.34
2022-08-18T00:56:01.996Z,1000.13
2022-08-18T00:56:36.194Z,1000.13
2022-08-18T00:57:05.924Z,1000.13
2022-08-18T00:57:33.352Z,1000.24
2022-08-18T00:57:54.884Z,1000.24
2022-08-18T00:58:26.937Z,1000.24
2022-08-18T00:58:57.980Z,1000.13
2022-08-18T00:59:29.972Z,1000.13
2022-08-18T01:00:02.100Z,999.93
2022-08-18T01:00:33.464Z,1000.13
2022-08-18T01:00:50.222Z,1000.13
2022-08-18T01:01:22.758Z,1000.13
2022-08-18T01:01:40.725Z,1000.03
2022-08-18T01:02:10.903Z,1000.03
2022-08-18T01:02:34.171Z,1000.03
2022-08-18T01:02:57.922Z,1000.03
2022-08-18T01:03:30.585Z,1000.03
2022-08-18T01:04:01.932Z,1000.03
2022-08-18T01:04:33.301Z,999.83
2022-08-18T01:04:50.539Z,999.83
2022-08-18T01:05:22.086Z,999.83
2022-08-18T01:05:39.104Z,1000.03
2022-08-18T01:06:10.018Z,1000.03
2022-08-18T01:06:34.955Z,1000.24
2022-08-18T01:06:58.624Z,1000.24
2022-08-18T01:07:29.917Z,1000.24
2022-08-18T01:08:03.431Z,1000.13
2022-08-18T01:08:33.235Z,1000.13
2022-08-18T01:08:49.808Z,1000.13
2022-08-18T01:09:21.881Z,1000.13
2022-08-18T01:09:39.203Z,1000.13
2022-08-18T01:10:10.928Z,1000.13
2022-08-18T01:10:34.654Z,1000.24
2022-08-18T01:11:14.012Z,1000.24
2022-08-18T01:11:34.058Z,1000.13
2022-08-18T01:12:01.924Z,1000.13
2022-08-18T01:12:50.769Z,1000.13
2022-08-18T01:13:22.021Z,1000.13
2022-08-18T01:13:39.077Z,1000.13
2022-08-18T01:14:10.705Z,1000.13
2022-08-18T01:14:33.352Z,1000.03
2022-08-18T01:14:58.793Z,1000.03
2022-08-18T01:15:30.900Z,1000.03
2022-08-18T01:16:02.891Z,1000.03
2022-08-18T01:16:34.088Z,1000.13
2022-08-18T01:17:06.884Z,1000.13
2022-08-18T01:17:33.282Z,1000.24
2022-08-18T01:17:53.961Z,1000.24
2022-08-18T01:18:25.924Z,1000.24
2022-08-18T01:18:58.696Z,1000.24
2022-08-18T01:19:29.966Z,1000.24
2022-08-18T01:20:02.826Z,999.93
2022-08-18T01:20:33.354Z,1000.34
2022-08-18T01:20:49.884Z,1000.34
2022-08-18T01:21:22.659Z,1000.34
2022-08-18T01:21:39.837Z,1000.34
2022-08-18T01:22:10.031Z,1000.34
2022-08-18T01:22:33.354Z,1000.34
2022-08-18T01:22:57.917Z,1000.34
2022-08-18T01:23:30.759Z,1000.34
2022-08-18T01:24:01.903Z,1000.34
2022-08-18T01:24:35.065Z,1000.34
2022-08-18T01:25:06.119Z,1000.34
2022-08-18T01:25:34.731Z,1000.13
2022-08-18T01:26:10.717Z,1000.13
2022-08-18T01:26:34.683Z,1000.13
2022-08-18T01:26:57.999Z,1000.13
2022-08-18T01:27:29.975Z,1000.13
2022-08-18T01:28:01.904Z,1000.34
2022-08-18T01:28:34.934Z,1000.34
2022-08-18T01:29:05.984Z,1000.34
2022-08-18T01:29:33.239Z,1000.44
2022-08-18T01:29:54.054Z,1000.44
2022-08-18T01:30:26.888Z,1000.44
2022-08-18T01:30:58.930Z,1000.34
2022-08-18T01:31:29.987Z,1000.34
2022-08-18T01:32:03.024Z,1000.13
2022-08-18T01:32:33.552Z,1000.34
2022-08-18T01:33:05.895Z,1000.34
2022-08-18T01:33:33.376Z,1000.34
2022-08-18T01:33:54.593Z,1000.34
2022-08-18T01:34:25.963Z,1000.34
2022-08-18T01:34:58.581Z,1000.34
2022-08-18T01:35:37.151Z,1000.34
2022-08-18T01:36:01.952Z,1000.44
2022-08-18T01:36:33.242Z,1000.34
2022-08-18T01:36:49.736Z,1000.34
2022-08-18T01:37:22.579Z,1000.34
2022-08-18T01:37:40.814Z,1000.24
2022-08-18T01:38:09.884Z,1000.24
2022-08-18T01:38:36.026Z,1000.24
2022-08-18T01:38:58.032Z,1000.24
2022-08-18T01:41:24.065Z,1000.24
2022-08-18T01:41:34.457Z,1000.34
2022-08-18T01:41:54.770Z,1000.34
2022-08-18T01:42:26.679Z,1000.34
2022-08-18T01:42:57.926Z,1000.24
2022-08-18T01:43:30.035Z,1000.24
2022-08-18T01:44:02.013Z,1000.24
2022-08-18T01:44:33.336Z,1000.34
2022-08-18T01:44:50.633Z,1000.34
2022-08-18T01:45:22.148Z,1000.34
2022-08-18T01:45:39.167Z,1000.44
2022-08-18T01:46:10.682Z,1000.44
2022-08-18T01:46:33.351Z,1000.24
2022-08-18T01:46:58.786Z,1000.24
2022-08-18T01:47:29.919Z,1000.24
2022-08-18T01:48:02.137Z,1000.24
2022-08-18T01:48:33.297Z,1000.44
2022-08-18T01:48:49.739Z,1000.44
2022-08-18T01:49:22.737Z,1000.44
2022-08-18T01:49:39.941Z,1000.54
2022-08-18T01:50:10.100Z,1000.54
2022-08-18T01:50:33.403Z,1000.54
2022-08-18T01:50:58.927Z,1000.54
2022-08-18T01:51:38.276Z,1000.54
2022-08-18T01:52:01.901Z,1000.44
2022-08-18T01:52:34.933Z,1000.54
2022-08-18T01:53:06.012Z,1000.54
2022-08-18T01:53:33.276Z,1000.34
2022-08-18T01:53:53.902Z,1000.34
2022-08-18T01:54:25.893Z,1000.34
2022-08-18T01:54:59.564Z,1000.44
2022-08-18T01:55:30.114Z,1000.44
2022-08-18T01:56:01.958Z,1000.61
2022-08-18T01:56:33.375Z,1000.61
2022-08-18T01:56:49.797Z,1000.61
2022-08-18T01:57:22.666Z,1000.61
2022-08-18T01:57:40.614Z,1000.54
2022-08-18T01:58:09.912Z,1000.54
2022-08-18T01:58:33.272Z,1000.54
2022-08-18T01:58:57.867Z,1000.54
2022-08-18T01:59:29.959Z,1000.54
2022-08-18T02:00:02.202Z,1000.44
2022-08-18T02:00:33.352Z,1000.61
2022-08-18T02:00:50.695Z,1000.61
2022-08-18T02:01:21.962Z,1000.61
2022-08-18T02:01:45.259Z,1000.54
2022-08-18T02:02:10.085Z,1000.54
2022-08-18T02:02:33.284Z,1000.61
2022-08-18T02:03:01.762Z,1000.61
2022-08-18T02:03:29.917Z,1000.61
2022-08-18T02:04:23.739Z,1000.54
2022-08-18T02:04:49.963Z,1000.54
2022-08-18T02:05:22.074Z,1000.54
2022-08-18T02:05:39.904Z,1000.61
2022-08-18T02:06:13.906Z,1000.61
2022-08-18T02:06:33.679Z,1000.61
2022-08-18T02:06:58.950Z,1000.61
2022-08-18T02:07:36.074Z,1000.61
2022-08-18T02:08:02.789Z,1000.61
2022-08-18T02:08:33.356Z,1000.71
2022-08-18T02:08:53.636Z,1000.71
2022-08-18T02:09:24.206Z,1000.71
2022-08-18T02:09:39.804Z,1000.61
2022-08-18T02:10:12.016Z,1000.61
2022-08-18T02:10:33.275Z,1000.71
2022-08-18T02:10:58.050Z,1000.71
2022-08-18T02:11:30.748Z,1000.71
2022-08-18T02:12:02.051Z,1000.71
2022-08-18T02:12:33.247Z,1000.44
2022-08-18T02:12:50.485Z,1000.44
2022-08-18T02:13:35.595Z,1000.71
2022-08-18T02:13:54.731Z,1000.71
2022-08-18T02:14:27.264Z,1000.71
2022-08-18T02:14:58.552Z,1000.44
2022-08-18T02:15:31.136Z,1000.44
2022-08-18T02:16:05.937Z,1000.44
2022-08-18T02:16:36.393Z,1000.44
2022-08-18T02:17:05.956Z,1000.44
2022-08-18T02:17:33.268Z,1000.44
2022-08-18T02:17:53.879Z,1000.44
2022-08-18T02:18:47.992Z,1000.44
2022-08-18T02:18:57.970Z,1000.54
2022-08-18T02:19:30.778Z,1000.54
2022-08-18T02:20:02.046Z,1000.44
2022-08-18T02:20:33.364Z,1000.61
2022-08-18T02:20:50.691Z,1000.61
2022-08-18T02:21:21.952Z,1000.61
2022-08-18T02:21:39.089Z,1000.34
2022-08-18T02:22:10.907Z,1000.34
2022-08-18T02:22:33.239Z,1000.34
2022-08-18T02:22:57.853Z,1000.34
2022-08-18T02:23:30.659Z,1000.34
2022-08-18T02:24:01.975Z,1000.61
2022-08-18T02:24:34.146Z,1000.44
2022-08-18T02:25:06.802Z,1000.44
2022-08-18T02:25:33.378Z,1000.44
2022-08-18T02:25:54.145Z,1000.44
2022-08-18T02:26:27.190Z,1000.44
2022-08-18T02:26:59.676Z,1000.61
2022-08-18T02:27:29.913Z,1000.61
2022-08-18T02:28:03.415Z,1000.44
2022-08-18T02:28:34.038Z,1000.61
2022-08-18T02:29:06.717Z,1000.61
2022-08-18T02:29:33.384Z,1000.44
2022-08-18T02:29:53.844Z,1000.44
2022-08-18T02:30:26.111Z,1000.44
2022-08-18T02:30:58.646Z,1000.44
2022-08-18T02:31:30.660Z,1000.44
2022-08-18T02:32:01.895Z,1000.24
2022-08-18T02:32:34.245Z,1000.24
2022-08-18T02:33:07.087Z,1000.24
2022-08-18T02:33:35.512Z,1000.54
2022-08-18T02:33:53.872Z,1000.54
2022-08-18T02:34:25.885Z,1000.54
2022-08-18T02:34:59.346Z,1000.54
2022-08-18T02:35:30.144Z,1000.54
2022-08-18T02:36:02.865Z,1000.34
2022-08-18T02:36:34.349Z,1000.44
2022-08-18T02:37:09.915Z,1000.44
2022-08-18T02:37:33.341Z,1000.24
2022-08-18T02:37:54.018Z,1000.24
2022-08-18T02:38:26.650Z,1000.24
2022-08-18T02:38:59.807Z,1000.13
2022-08-18T02:39:30.923Z,1000.13
2022-08-18T02:40:02.634Z,1000.34
2022-08-18T02:40:33.419Z,1000.34
2022-08-18T02:40:50.810Z,1000.34
2022-08-18T02:41:35.600Z,1000.54
2022-08-18T02:41:54.780Z,1000.54
2022-08-18T02:42:26.000Z,1000.54
2022-08-18T02:42:57.930Z,1000.24
2022-08-18T02:43:31.164Z,1000.24
2022-08-18T02:44:01.884Z,1000.44
2022-08-18T02:44:33.291Z,1000.44
2022-08-18T02:44:49.839Z,1000.44
2022-08-18T02:45:22.915Z,1000.44
2022-08-18T02:45:39.777Z,1000.34
2022-08-18T02:46:09.886Z,1000.34
2022-08-18T02:46:33.331Z,1000.24
2022-08-18T02:46:58.500Z,1000.24
2022-08-18T02:47:33.642Z,1000.24
2022-08-18T02:48:01.866Z,1000.13
2022-08-18T02:48:34.167Z,1000.13
2022-08-18T02:49:05.872Z,1000.13
2022-08-18T02:49:33.352Z,1000.44
2022-08-18T02:49:53.928Z,1000.44
2022-08-18T02:50:26.069Z,1000.44
2022-08-18T02:50:58.702Z,1000.34
2022-08-18T02:51:29.885Z,1000.34
2022-08-18T02:52:02.618Z,1000.13
2022-08-18T02:52:33.323Z,1000.13
2022-08-18T02:52:49.741Z,1000.13
2022-08-18T02:53:21.885Z,1000.13
2022-08-18T02:53:38.974Z,1000.03
2022-08-18T02:54:10.983Z,1000.03
2022-08-18T02:54:43.225Z,1000.24
2022-08-18T02:55:13.971Z,1000.24
2022-08-18T02:55:33.257Z,1000.03
2022-08-18T02:56:03.048Z,1000.03
2022-08-18T02:56:41.219Z,1000.13
2022-08-18T02:56:49.806Z,1000.13
2022-08-18T02:57:21.824Z,1000.13
2022-08-18T02:57:38.949Z,1000.13
2022-08-18T02:58:11.660Z,1000.13
2022-08-18T02:58:33.756Z,999.93
2022-08-18T02:58:57.969Z,999.93
2022-08-18T02:59:32.070Z,999.93
2022-08-18T03:00:02.319Z,1000.24
2022-08-18T03:00:35.854Z,1000.13
2022-08-18T03:01:05.960Z,1000.13
2022-08-18T03:01:34.618Z,1000.13
2022-08-18T03:01:54.059Z,1000.13
2022-08-18T03:02:26.835Z,1000.13
2022-08-18T03:02:58.730Z,1000.24
2022-08-18T03:03:29.876Z,1000.24
2022-08-18T03:04:02.662Z,1000.24
2022-08-18T03:04:33.325Z,1000.24
2022-08-18T03:04:49.980Z,1000.24
2022-08-18T03:05:22.900Z,1000.24
2022-08-18T03:05:39.859Z,1000.03
2022-08-18T03:06:09.956Z,1000.03
2022-08-18T03:06:33.404Z,999.83
2022-08-18T03:06:57.842Z,999.83
2022-08-18T03:07:30.647Z,999.83
2022-08-18T03:08:03.943Z,1000.13
2022-08-18T03:08:34.749Z,1000.24
2022-08-18T03:09:05.935Z,1000.24
2022-08-18T03:09:34.265Z,1000.13
2022-08-18T03:09:53.841Z,1000.13
2022-08-18T03:10:33.329Z,1000.13
2022-08-18T03:10:59.671Z,1000.24
2022-08-18T03:11:29.964Z,1000.24
2022-08-18T03:12:02.965Z,999.93
2022-08-18T03:12:33.963Z,999.93
2022-08-18T03:13:05.908Z,999.93
2022-08-18T03:13:34.045Z,999.93
2022-08-18T03:13:53.974Z,999.93
2022-08-18T03:14:25.860Z,999.93
2022-08-18T03:14:59.640Z,999.93
2022-08-18T03:15:30.140Z,999.93
2022-08-18T03:16:03.559Z,999.93
2022-08-18T03:16:34.479Z,1000.03
2022-08-18T03:17:05.916Z,1000.03
2022-08-18T03:17:34.101Z,999.93
2022-08-18T03:17:53.939Z,999.93
2022-08-18T03:18:27.546Z,999.93
2022-08-18T03:18:57.834Z,999.93
2022-08-18T03:19:31.548Z,999.93
2022-08-18T03:20:02.559Z,1000.03
2022-08-18T03:20:33.358Z,999.93
2022-08-18T03:20:50.833Z,999.93
2022-08-18T03:21:21.860Z,999.93
2022-08-18T03:21:39.009Z,1000.03
2022-08-18T03:22:27.399Z,1000.03
2022-08-18T03:22:33.412Z,1000.13
2022-08-18T03:22:59.826Z,1000.13
2022-08-18T03:23:30.452Z,1000.13
2022-08-18T03:24:02.883Z,1000.13
2022-08-18T03:24:33.363Z,1000.24
2022-08-18T03:24:49.829Z,1000.24
2022-08-18T03:25:34.252Z,999.93
2022-08-18T03:25:53.923Z,999.93
2022-08-18T03:26:26.773Z,999.93
2022-08-18T03:26:57.890Z,999.93
2022-08-18T03:27:30.832Z,999.93
2022-08-18T03:28:01.936Z,999.73
2022-08-18T03:28:33.339Z,1000.03
2022-08-18T03:28:49.799Z,1000.03
2022-08-18T03:29:22.608Z,1000.03
2022-08-18T03:29:41.057Z,1000.13
2022-08-18T03:30:11.497Z,1000.13
2022-08-18T03:30:33.377Z,1000.03
2022-08-18T03:30:58.031Z,1000.03
2022-08-18T03:31:29.858Z,1000.03
2022-08-18T03:32:02.938Z,1000.13
2022-08-18T03:32:33.294Z,1000.13
2022-08-18T03:32:50.571Z,1000.13
2022-08-18T03:33:24.861Z,1000.13
2022-08-18T03:33:41.472Z,999.83
2022-08-18T03:34:09.912Z,999.83
2022-08-18T03:34:33.272Z,999.93
2022-08-18T03:34:57.949Z,999.93
2022-08-18T03:35:30.050Z,999.93
2022-08-18T03:36:01.879Z,1000.13
2022-08-18T03:36:33.376Z,999.93
2022-08-18T03:36:49.771Z,999.93
2022-08-18T03:37:23.100Z,999.93
2022-08-18T03:37:40.716Z,999.93
2022-08-18T03:38:09.925Z,999.93
2022-08-18T03:38:35.098Z,1000.03
2022-08-18T03:38:57.828Z,1000.03
2022-08-18T03:39:32.879Z,1000.03
2022-08-18T03:40:02.223Z,1000.24
2022-08-18T03:40:34.351Z,1000.13
2022-08-18T03:41:05.835Z,1000.13
2022-08-18T03:41:57.117Z,1000.03
2022-08-18T03:42:09.834Z,1000.03
2022-08-18T03:42:33.382Z,1000.13
2022-08-18T03:42:58.931Z,1000.13
2022-08-18T03:43:51.168Z,1000.13
2022-08-18T03:44:02.586Z,1000.03
2022-08-18T03:44:33.370Z,1000.03
2022-08-18T03:44:50.867Z,1000.03
2022-08-18T03:45:22.083Z,1000.03
2022-08-18T03:45:39.047Z,999.83
2022-08-18T03:46:10.529Z,999.83
2022-08-18T03:46:33.303Z,1000.03
2022-08-18T03:46:57.861Z,1000.03
2022-08-18T03:47:29.950Z,1000.03
2022-08-18T03:48:02.002Z,1000.24
2022-08-18T03:48:33.392Z,999.93
2022-08-18T03:48:50.785Z,999.93
2022-08-18T03:49:22.701Z,999.93
2022-08-18T03:49:39.824Z,1000.24
2022-08-18T03:50:10.093Z,1000.24
2022-08-18T03:50:33.415Z,1000.03
2022-08-18T03:51:01.827Z,1000.03
2022-08-18T03:51:29.806Z,1000.03
2022-08-18T03:52:02.724Z,1000.13
2022-08-18T03:52:34.414Z,1000.13
2022-08-18T03:53:06.674Z,1000.13
2022-08-18T03:53:35.557Z,1000.03
2022-08-18T03:53:53.799Z,1000.03
2022-08-18T03:54:25.920Z,1000.03
2022-08-18T03:54:58.915Z,1000.03
2022-08-18T03:55:29.980Z,1000.03
2022-08-18T03:56:02.820Z,999.93
2022-08-18T03:56:33.262Z,1000.13
2022-08-18T03:56:49.872Z,1000.13
2022-08-18T03:57:22.611Z,1000.13
2022-08-18T03:57:40.743Z,999.93
2022-08-18T03:58:11.293Z,999.93
2022-08-18T03:58:34.276Z,1000.34
2022-08-18T03:58:57.857Z,1000.34
2022-08-18T03:59:32.282Z,1000.34
2022-08-18T04:00:02.287Z,1000.13
2022-08-18T04:00:33.338Z,1000.13
2022-08-18T04:00:49.865Z,1000.13
2022-08-18T04:01:26.285Z,1000.13
2022-08-18T04:01:39.714Z,1000.24
2022-08-18T04:02:09.929Z,1000.24
2022-08-18T04:02:33.334Z,1000.03
2022-08-18T04:02:57.836Z,1000.03
2022-08-18T04:03:30.848Z,1000.03
2022-08-18T04:04:01.943Z,999.93
2022-08-18T04:04:34.259Z,1000.03
2022-08-18T04:05:05.971Z,1000.03
2022-08-18T04:05:34.401Z,1000.13
2022-08-18T04:05:54.882Z,1000.13
2022-08-18T04:06:30.138Z,1000.13
2022-08-18T04:06:59.381Z,999.83
2022-08-18T04:07:29.817Z,999.83
2022-08-18T04:08:02.619Z,1000.03
2022-08-18T04:08:33.403Z,1000.13
2022-08-18T04:08:49.885Z,1000.13
2022-08-18T04:09:22.628Z,1000.13
2022-08-18T04:09:41.582Z,999.93
2022-08-18T04:10:16.289Z,999.93
2022-08-18T04:10:35.038Z,1000.13
2022-08-18T04:10:58.045Z,1000.13
2022-08-18T04:11:35.692Z,1000.13
2022-08-18T04:12:02.007Z,1000.24
2022-08-18T04:12:35.134Z,1000.03
2022-08-18T04:13:05.864Z,1000.03
2022-08-18T04:13:33.465Z,999.93
2022-08-18T04:13:54.630Z,999.93
2022-08-18T04:14:29.473Z,999.93
2022-08-18T04:14:57.807Z,1000.13
2022-08-18T04:15:30.046Z,1000.13
2022-08-18T04:16:01.926Z,1000.13
2022-08-18T04:16:35.097Z,999.93
2022-08-18T04:17:05.791Z,999.93
2022-08-18T04:17:36.388Z,1000.13
2022-08-18T04:18:10.025Z,1000.13
2022-08-18T04:18:34.270Z,1000.03
2022-08-18T04:18:57.829Z,1000.03
2022-08-18T04:19:30.577Z,1000.03
2022-08-18T04:20:02.022Z,1000.03
2022-08-18T04:20:34.440Z,1000.03
2022-08-18T04:21:05.926Z,1000.03
2022-08-18T04:21:33.295Z,1000.03
2022-08-18T04:21:53.811Z,1000.03
2022-08-18T04:22:25.862Z,1000.03
2022-08-18T04:23:00.204Z,1000.13
2022-08-18T04:23:39.419Z,1000.13
2022-08-18T04:24:02.589Z,1000.13
2022-08-18T04:24:34.294Z,1000.03
2022-08-18T04:25:06.042Z,1000.03
2022-08-18T04:25:33.550Z,1000.13
2022-08-18T04:25:53.935Z,1000.13
2022-08-18T04:26:25.813Z,1000.13
2022-08-18T04:26:57.887Z,1000.13
2022-08-18T04:27:30.870Z,1000.13
2022-08-18T04:28:01.790Z,999.93
2022-08-18T04:28:33.478Z,1000.24
2022-08-18T04:28:50.717Z,1000.24
2022-08-18T04:29:21.917Z,1000.24
2022-08-18T04:29:38.982Z,1000.34
2022-08-18T04:30:11.740Z,1000.34
2022-08-18T04:30:33.255Z,1000.24
2022-08-18T04:30:57.890Z,1000.24
2022-08-18T04:31:29.855Z,1000.24
2022-08-18T04:32:01.987Z,1000.24
2022-08-18T04:32:33.342Z,1000.24
2022-08-18T04:32:49.755Z,1000.24
2022-08-18T04:33:22.652Z,1000.24
2022-08-18T04:33:39.898Z,1000.03
2022-08-18T04:34:09.879Z,1000.03
2022-08-18T04:34:33.255Z,1000.13
2022-08-18T04:34:58.531Z,1000.13
2022-08-18T04:35:29.954Z,1000.13
2022-08-18T04:36:02.640Z,999.93
2022-08-18T04:36:34.274Z,1000.24
2022-08-18T04:37:06.565Z,1000.24
2022-08-18T04:37:33.305Z,1000.13
2022-08-18T04:37:53.983Z,1000.13
2022-08-18T04:38:25.905Z,1000.13
2022-08-18T04:38:58.104Z,1000.13
2022-08-18T04:39:29.823Z,1000.13
2022-08-18T04:40:01.961Z,1000.34
2022-08-18T04:40:33.245Z,1000.24
2022-08-18T04:40:49.981Z,1000.24
2022-08-18T04:41:22.519Z,1000.24
2022-08-18T04:41:39.631Z,1000.13
2022-08-18T04:42:09.849Z,1000.13
2022-08-18T04:42:33.412Z,1000.44
2022-08-18T04:42:57.931Z,1000.44
2022-08-18T04:43:30.810Z,1000.44
2022-08-18T04:44:02.760Z,1000.24
2022-08-18T04:44:34.281Z,1000.03
2022-08-18T04:45:06.103Z,1000.03
2022-08-18T04:45:33.355Z,1000.24
2022-08-18T04:45:53.933Z,1000.24
2022-08-18T04:46:25.809Z,1000.24
2022-08-18T04:46:58.771Z,1000.44
2022-08-18T04:47:30.830Z,1000.44
2022-08-18T04:48:02.661Z,1000.13
2022-08-18T04:48:33.421Z,1000.24
2022-08-18T04:48:49.809Z,1000.24
2022-08-18T04:49:21.922Z,1000.24
2022-08-18T04:49:39.097Z,1000.44
2022-08-18T04:50:10.683Z,1000.44
2022-08-18T04:50:33.355Z,1000.54
2022-08-18T04:50:57.970Z,1000.54
2022-08-18T04:52:34.470Z,1000.54
2022-08-18T04:52:50.042Z,1000.34
2022-08-18T04:53:23.862Z,1000.34
2022-08-18T04:53:41.712Z,1000.54
2022-08-18T04:54:10.027Z,1000.54
2022-08-18T04:54:33.426Z,1000.44
2022-08-18T04:54:58.452Z,1000.44
2022-08-18T04:55:29.963Z,1000.44
2022-08-18T04:56:04.553Z,1000.61
2022-08-18T04:56:33.353Z,1000.54
2022-08-18T04:56:49.933Z,1000.54
2022-08-18T04:57:21.920Z,1000.54
2022-08-18T04:57:39.844Z,1000.24
2022-08-18T04:58:09.967Z,1000.24
2022-08-18T04:58:34.720Z,1000.44
2022-08-18T04:58:57.979Z,1000.44
2022-08-18T04:59:31.356Z,1000.44
2022-08-18T05:00:02.214Z,1000.54
2022-08-18T05:00:33.391Z,1000.54
2022-08-18T05:00:50.157Z,1000.54
2022-08-18T05:01:24.663Z,1000.54
2022-08-18T05:01:56.901Z,1000.54
2022-08-18T05:02:26.953Z,1000.54
2022-08-18T05:02:57.906Z,1000.61
2022-08-18T05:03:31.375Z,1000.61
2022-08-18T05:04:01.839Z,1000.61
2022-08-18T05:04:34.222Z,1000.71
2022-08-18T05:05:06.081Z,1000.71
2022-08-18T05:05:33.480Z,1000.61
2022-08-18T05:05:56.838Z,1000.61
2022-08-18T05:06:26.650Z,1000.61
2022-08-18T05:06:57.927Z,1000.44
2022-08-18T05:07:30.717Z,1000.44
2022-08-18T05:08:02.021Z,1000.61
2022-08-18T05:08:33.453Z,1000.71
2022-08-18T05:08:50.726Z,1000.71
2022-08-18T05:09:23.337Z,1000.71
2022-08-18T05:09:41.071Z,1000.71
2022-08-18T05:10:11.526Z,1000.71
2022-08-18T05:10:34.385Z,1000.61
2022-08-18T05:11:03.636Z,1000.61
2022-08-18T05:11:30.584Z,1000.61
2022-08-18T05:12:01.998Z,1000.54
2022-08-18T05:12:35.278Z,1000.34
2022-08-18T05:13:07.694Z,1000.34
2022-08-18T05:13:33.454Z,1000.71
2022-08-18T05:13:54.623Z,1000.71
2022-08-18T05:14:25.995Z,1000.71
2022-08-18T05:14:58.690Z,1000.71
2022-08-18T05:15:46.894Z,1000.71
2022-08-18T05:16:10.991Z,1000.61
2022-08-18T05:16:35.229Z,1000.91
2022-08-18T05:17:06.671Z,1000.91
2022-08-18T05:17:33.380Z,1000.71
2022-08-18T05:17:54.997Z,1000.71
2022-08-18T05:18:26.730Z,1000.71
2022-08-18T05:18:58.280Z,1000.61
2022-08-18T05:19:29.832Z,1000.61
2022-08-18T05:20:02.264Z,1000.71
2022-08-18T05:20:33.776Z,1000.61
2022-08-18T05:21:05.992Z,1000.61
2022-08-18T05:21:36.069Z,1000.81
2022-08-18T05:21:53.885Z,1000.81
2022-08-18T05:22:28.670Z,1000.81
2022-08-18T05:22:58.817Z,1000.61
2022-08-18T05:23:31.108Z,1000.61
2022-08-18T05:24:01.866Z,1000.54
2022-08-18T05:25:04.768Z,1000.54
2022-08-18T05:25:22.238Z,1000.54
2022-08-18T05:25:39.489Z,1000.71
2022-08-18T05:26:09.965Z,1000.71
2022-08-18T05:26:33.337Z,1000.71
2022-08-18T05:26:59.419Z,1000.71
2022-08-18T05:27:29.947Z,1000.71
2022-08-18T05:28:01.972Z,1000.44
2022-08-18T05:28:34.148Z,1000.54
2022-08-18T05:29:19.047Z,1000.54
2022-08-18T05:29:33.449Z,1000.54
2022-08-18T05:29:54.428Z,1000.54
2022-08-18T05:30:26.804Z,1000.54
2022-08-18T05:31:00.388Z,1000.71
2022-08-18T05:31:30.642Z,1000.71
2022-08-18T05:32:01.944Z,1000.71
2022-08-18T05:32:47.295Z,1000.61
2022-08-18T05:33:06.638Z,1000.61
2022-08-18T05:33:34.420Z,1000.71
2022-08-18T05:33:54.833Z,1000.71
2022-08-18T05:34:25.891Z,1000.71
2022-08-18T05:34:57.943Z,1000.54
2022-08-18T05:35:29.979Z,1000.54
2022-08-18T05:36:01.831Z,1000.71
2022-08-18T05:36:34.505Z,1000.71
2022-08-18T05:37:05.916Z,1000.71
2022-08-18T05:37:35.821Z,1000.61
2022-08-18T05:37:54.855Z,1000.61
2022-08-18T05:38:26.742Z,1000.61
2022-08-18T05:38:57.941Z,1000.71
2022-08-18T05:39:29.975Z,1000.71
2022-08-18T05:40:08.921Z,1000.61
2022-08-18T05:40:35.490Z,1000.54
2022-08-18T05:41:06.135Z,1000.54
2022-08-18T05:41:33.347Z,1000.71
2022-08-18T05:41:53.787Z,1000.71
2022-08-18T05:42:26.770Z,1000.71
2022-08-18T05:42:57.928Z,1000.54
2022-08-18T05:43:30.529Z,1000.54
2022-08-18T05:44:01.870Z,1000.71
2022-08-18T05:44:35.671Z,1000.71
2022-08-18T05:45:06.993Z,1000.71
2022-08-18T05:45:33.415Z,1000.71
2022-08-18T05:45:56.492Z,1000.71
2022-08-18T05:46:25.863Z,1000.71